Bow Victor — LAHC2 — position and weather

sailwx.info

Track history (hours):
 
Tides and Currents Weather Stations Pressure Air Temp Water Temp Dewpoint Dewpoint Depression Visibility Wind Speed Wind Dir Waves Ship Positions

Bow Victor

Last reported at 2014-Sep-10 20:18 UTC. Time now 2014-Oct-01 16:29 UTC.
Position N 37°31' E 010°41'.
Warning: this ship's position is 20 days out of date.

Length 183 m; draft 10.2 m.

Type: Tanker. MMSI: 257873000.

Date/timePositionNaut miles runAvg speedWind from/ knotsBaromVisibWave heightAir tempDewpointWater temp
2014-Sep-10 20:18N 37°31' E 010°41'1114.7
2014-Sep-10 19:33N 37°34' E 010°28'2014.4
2014-Sep-10 18:09N 37°34' E 010°03'1114.7
2014-Sep-10 17:23N 37°32' E 009°48'1214.6
2014-Sep-10 16:33N 37°28' E 009°34'1514.5
2014-Sep-10 15:31N 37°24' E 009°16'18613.9
2014-Sep-10 02:09N 37°24' E 005°22'3614.1
2014-Sep-09 23:33N 37°24' E 004°36'1414.2
2014-Sep-09 22:33N 37°24' E 004°18'2114.7
2014-Sep-09 21:08N 37°22' E 003°52'814.7
2014-Sep-09 20:33N 37°21' E 003°41'1514.4
2014-Sep-09 19:33N 37°18' E 003°23'1414.5
2014-Sep-09 18:33N 37°15' E 003°06'1414.0
2014-Sep-09 17:33N 37°11' E 002°48'1413.8
2014-Sep-09 16:33N 37°08' E 002°32'1513.9
2014-Sep-09 15:28N 37°05' E 002°13'37210.3
2014-Sep-08 03:26N 35°60' W 005°22'  
2014-Sep-04 19:30N 39°47' W 027°34'1313.2
2014-Sep-04 18:32N 39°47' W 027°50'1212.6
2014-Sep-04 17:33N 39°47' W 028°06'5 4.5
2014-Sep-04 16:33N 39°52' W 028°06'2713.5
2014-Sep-04 14:33N 39°56' W 028°40'1713.5
2014-Sep-04 13:18N 39°58' W 029°02'1013.4
2014-Sep-04 12:33N 39°58' W 029°15'1313.3
2014-Sep-04 11:33N 39°60' W 029°33'  
Track history (hours):
 
Tides and Currents Weather Stations Pressure Air Temp Water Temp Dewpoint Dewpoint Depression Visibility Wind Speed Wind Dir Waves Ship Positions

Bow Victor

Last reported at 2014-Sep-10 20:18 UTC. Time now 2014-Oct-01 16:29 UTC.
Position N 37°31' E 010°41'.
Warning: this ship's position is 20 days out of date.

Length 183 m; draft 10.2 m.

Type: Tanker. MMSI: 257873000.

Date/timePositionNaut miles runAvg speedWind from/ knotsBaromVisibWave heightAir tempDewpointWater temp
2014-Sep-10 20:18N 37°31' E 010°41'1114.7
2014-Sep-10 19:33N 37°34' E 010°28'2014.4
2014-Sep-10 18:09N 37°34' E 010°03'1114.7
2014-Sep-10 17:23N 37°32' E 009°48'1214.6
2014-Sep-10 16:33N 37°28' E 009°34'1514.5
2014-Sep-10 15:31N 37°24' E 009°16'18613.9
2014-Sep-10 02:09N 37°24' E 005°22'3614.1
2014-Sep-09 23:33N 37°24' E 004°36'1414.2
2014-Sep-09 22:33N 37°24' E 004°18'2114.7
2014-Sep-09 21:08N 37°22' E 003°52'814.7
2014-Sep-09 20:33N 37°21' E 003°41'1514.4
2014-Sep-09 19:33N 37°18' E 003°23'1414.5
2014-Sep-09 18:33N 37°15' E 003°06'1414.0
2014-Sep-09 17:33N 37°11' E 002°48'1413.8
2014-Sep-09 16:33N 37°08' E 002°32'1513.9
2014-Sep-09 15:28N 37°05' E 002°13'37210.3
2014-Sep-08 03:26N 35°60' W 005°22'  
2014-Sep-04 19:30N 39°47' W 027°34'1313.2
2014-Sep-04 18:32N 39°47' W 027°50'1212.6
2014-Sep-04 17:33N 39°47' W 028°06'5 4.5
2014-Sep-04 16:33N 39°52' W 028°06'2713.5
2014-Sep-04 14:33N 39°56' W 028°40'1713.5
2014-Sep-04 13:18N 39°58' W 029°02'1013.4
2014-Sep-04 12:33N 39°58' W 029°15'1313.3
2014-Sep-04 11:33N 39°60' W 029°33'  

Dump ship's entire track history